createdAt,value
2018-07-13T14:00:57.700Z,28.50
2018-07-13T14:03:42.627Z,28.50
2018-07-13T14:06:10.803Z,27.10
2018-07-13T14:08:38.492Z,28.50
2018-07-13T14:11:06.684Z,28.40
2018-07-13T14:13:34.550Z,28.30
2018-07-13T14:16:02.249Z,28.20
2018-07-13T14:18:30.404Z,28.20
2018-07-13T14:20:58.188Z,28.10
2018-07-13T14:23:28.629Z,28.20
2018-07-13T14:25:56.632Z,28.30
2018-07-13T14:28:25.000Z,28.40
2018-07-13T14:30:52.808Z,28.40
2018-07-13T14:33:20.545Z,28.30
2018-07-13T14:35:48.812Z,28.30
2018-07-13T14:38:16.749Z,28.30
2018-07-13T14:40:44.420Z,28.30
2018-07-13T14:43:12.389Z,28.00
2018-07-13T14:45:41.576Z,27.80
2018-07-13T14:48:09.511Z,27.50
2018-07-13T14:50:38.244Z,27.60
2018-07-13T14:53:06.537Z,27.70
2018-07-13T14:55:34.942Z,27.90
2018-07-13T14:58:03.189Z,28.10
2018-07-13T15:00:31.294Z,28.10
2018-07-13T15:02:59.296Z,28.20
2018-07-13T15:05:28.254Z,28.30
2018-07-13T15:07:56.476Z,28.20
2018-07-13T15:10:24.637Z,28.20
2018-07-13T15:12:52.272Z,28.20
2018-07-13T15:15:20.400Z,28.00
2018-07-13T15:17:48.498Z,28.00
2018-07-13T15:20:16.373Z,28.00
2018-07-13T15:22:44.219Z,28.10
2018-07-13T15:25:12.009Z,28.20
2018-07-13T15:27:39.892Z,28.30
2018-07-13T15:30:08.210Z,28.40
2018-07-13T15:32:36.300Z,28.30
2018-07-13T15:35:04.052Z,28.30
2018-07-13T15:37:31.764Z,28.30
2018-07-13T15:39:59.479Z,28.10
2018-07-13T15:42:27.485Z,27.90
2018-07-13T15:44:55.311Z,27.70
2018-07-13T15:47:23.217Z,27.70
2018-07-13T15:49:51.427Z,27.90
2018-07-13T15:52:19.114Z,28.00
2018-07-13T15:54:46.810Z,28.00
2018-07-13T15:57:14.540Z,28.00
2018-07-13T15:59:42.317Z,28.10
2018-07-13T16:02:11.076Z,28.00
2018-07-13T16:04:39.752Z,28.00
2018-07-13T16:07:08.295Z,28.00
2018-07-13T16:09:36.251Z,28.00
2018-07-13T16:12:04.259Z,28.10
2018-07-13T16:14:33.185Z,28.00
2018-07-13T16:17:00.931Z,27.90
2018-07-13T16:19:28.652Z,27.80
2018-07-13T16:21:56.504Z,27.60
2018-07-13T16:24:24.605Z,27.50
2018-07-13T16:26:52.322Z,27.40
2018-07-13T16:29:20.121Z,27.50
2018-07-13T16:31:48.141Z,27.60
2018-07-13T16:34:15.910Z,27.60
2018-07-13T16:36:43.854Z,27.60
2018-07-13T16:39:11.619Z,27.60
2018-07-13T16:41:39.735Z,27.60
2018-07-13T16:44:07.409Z,27.60
2018-07-13T16:46:35.188Z,27.70
2018-07-13T16:49:02.940Z,27.70
2018-07-13T16:51:30.764Z,27.60
2018-07-13T16:53:58.517Z,27.70
2018-07-13T16:56:26.388Z,27.60
2018-07-13T17:01:22.168Z,27.60
2018-07-13T17:03:50.051Z,27.60
2018-07-13T17:06:19.010Z,27.50
2018-07-13T17:08:47.616Z,27.50
2018-07-13T17:11:15.396Z,27.50
2018-07-13T17:13:43.267Z,27.50
2018-07-13T17:16:11.406Z,27.40
2018-07-13T17:18:39.507Z,27.30
2018-07-13T17:21:07.968Z,27.30
2018-07-13T17:23:36.616Z,27.20
2018-07-13T17:26:05.802Z,27.20
2018-07-13T17:28:33.815Z,27.20
2018-07-13T17:31:01.565Z,27.10
2018-07-13T17:33:30.082Z,27.10
2018-07-13T17:35:57.850Z,27.10
2018-07-13T17:38:25.735Z,27.10
2018-07-13T17:40:54.142Z,27.10
2018-07-13T17:43:21.992Z,27.10
2018-07-13T17:45:49.687Z,27.00
2018-07-13T17:48:17.711Z,27.00
2018-07-13T17:55:42.796Z,26.80
2018-07-13T17:58:10.698Z,26.80
2018-07-13T18:00:39.091Z,26.60
2018-07-13T18:03:06.833Z,26.60
2018-07-13T18:05:34.787Z,26.50
2018-07-13T18:08:02.505Z,26.50
2018-07-13T18:10:30.991Z,26.40
2018-07-13T18:12:59.576Z,26.30
2018-07-13T18:15:27.110Z,26.10
2018-07-13T18:17:55.545Z,26.00
2018-07-13T18:20:23.223Z,26.00
2018-07-13T18:22:50.912Z,26.00
2018-07-13T18:25:18.668Z,26.00
2018-07-13T18:27:46.409Z,25.90
2018-07-13T18:30:14.262Z,25.80
2018-07-13T18:32:47.877Z,25.70
2018-07-13T18:35:15.572Z,25.60
2018-07-13T18:37:43.496Z,25.40
2018-07-13T18:40:11.358Z,25.30
2018-07-13T18:42:38.991Z,25.20
2018-07-13T18:45:07.051Z,25.20
2018-07-13T18:47:34.956Z,25.10
2018-07-13T18:50:02.759Z,25.10
2018-07-13T18:52:30.563Z,25.10
2018-07-13T18:54:58.250Z,25.10
2018-07-13T18:59:54.920Z,24.90
2018-07-13T19:02:22.677Z,24.70
2018-07-13T19:04:50.413Z,24.60
2018-07-13T19:07:18.331Z,24.40
2018-07-13T19:09:46.136Z,24.20
2018-07-13T19:12:13.826Z,24.00
2018-07-13T19:14:41.717Z,23.90
2018-07-13T19:17:09.431Z,23.80
2018-07-13T19:19:38.088Z,23.80
2018-07-13T19:22:06.044Z,23.60
2018-07-13T19:24:34.069Z,23.40
2018-07-13T19:27:01.864Z,23.30
2018-07-13T19:29:30.213Z,23.20
2018-07-13T19:31:57.941Z,23.00
2018-07-13T19:34:26.092Z,22.70
2018-07-13T19:36:54.269Z,22.60
2018-07-13T19:39:22.259Z,22.50
2018-07-13T19:41:49.973Z,22.20
2018-07-13T19:44:17.783Z,22.10
2018-07-13T19:49:13.448Z,22.10
2018-07-13T19:51:41.237Z,21.90
2018-07-13T19:54:09.411Z,21.80
2018-07-13T19:56:37.236Z,21.70
2018-07-13T19:59:05.036Z,21.70
2018-07-13T20:01:32.779Z,21.70
2018-07-13T20:04:00.444Z,21.60
2018-07-13T20:06:28.177Z,21.50
2018-07-13T20:08:55.923Z,21.40
2018-07-13T20:13:51.440Z,21.10
2018-07-13T20:16:19.204Z,21.00
2018-07-13T20:18:47.185Z,20.90
2018-07-13T20:21:16.040Z,20.90
2018-07-13T20:23:45.595Z,21.00
2018-07-13T20:26:13.610Z,21.00
2018-07-13T20:28:42.257Z,21.00
2018-07-13T20:31:12.231Z,21.00
2018-07-13T20:33:40.265Z,21.00
2018-07-13T20:36:07.980Z,20.90
2018-07-13T20:38:35.651Z,20.90
2018-07-13T20:41:03.397Z,20.90
2018-07-13T20:43:31.207Z,20.90
2018-07-13T20:45:58.932Z,20.90
2018-07-13T20:48:26.739Z,20.80
2018-07-13T20:50:54.718Z,20.70
2018-07-13T20:53:22.456Z,20.60
2018-07-13T20:55:50.323Z,20.50
2018-07-13T20:58:18.113Z,20.40
2018-07-13T21:00:45.980Z,20.30
2018-07-13T21:03:13.806Z,20.20
2018-07-13T21:05:41.516Z,20.10
2018-07-13T21:08:09.251Z,20.00
2018-07-13T21:10:36.995Z,19.90
2018-07-13T21:13:05.811Z,19.80
2018-07-13T21:15:33.852Z,19.70
2018-07-13T21:18:02.688Z,19.60
2018-07-13T21:20:30.544Z,19.70
2018-07-13T21:22:58.381Z,19.70
2018-07-13T21:25:26.591Z,19.70
2018-07-13T21:27:54.665Z,19.60
2018-07-13T21:30:22.867Z,19.60
2018-07-13T21:32:50.947Z,19.50
2018-07-13T21:35:18.780Z,19.40
2018-07-13T21:37:46.725Z,19.30
2018-07-13T21:40:14.461Z,19.20
2018-07-13T21:42:42.177Z,19.10
2018-07-13T21:45:09.898Z,19.10
2018-07-13T21:47:37.667Z,19.00
2018-07-13T21:50:05.728Z,19.00
2018-07-13T21:52:33.646Z,19.10
2018-07-13T21:55:01.600Z,19.30
2018-07-13T21:57:29.773Z,19.30
2018-07-13T21:59:57.932Z,19.30
2018-07-13T22:02:25.874Z,19.20
2018-07-13T22:04:54.136Z,19.20
2018-07-13T22:07:21.974Z,19.10
2018-07-13T22:09:49.803Z,19.10
2018-07-13T22:12:18.267Z,19.10
2018-07-13T22:14:46.377Z,19.10
2018-07-13T22:17:14.266Z,19.20
2018-07-13T22:19:46.339Z,19.10
2018-07-13T22:22:14.363Z,19.00
2018-07-13T22:24:43.428Z,18.90
2018-07-13T22:27:13.790Z,18.90
2018-07-13T22:29:43.226Z,18.80
2018-07-13T22:32:12.238Z,18.80
2018-07-13T22:37:08.250Z,18.70
2018-07-13T22:39:35.941Z,18.60
2018-07-13T22:42:03.768Z,18.50
2018-07-13T22:44:31.510Z,18.40
2018-07-13T22:46:59.210Z,18.40
2018-07-13T22:49:26.907Z,19.00
2018-07-13T22:51:54.721Z,18.30
2018-07-13T22:54:22.555Z,18.30
2018-07-13T22:56:50.269Z,18.20
2018-07-13T22:59:18.168Z,18.20
2018-07-13T23:01:46.002Z,18.10
2018-07-13T23:04:13.798Z,18.10
2018-07-13T23:06:41.862Z,17.90
2018-07-13T23:09:09.603Z,17.90
2018-07-13T23:11:37.478Z,17.90
2018-07-13T23:14:05.723Z,17.80
2018-07-13T23:16:33.595Z,17.80
2018-07-13T23:19:01.453Z,17.80
2018-07-13T23:21:29.284Z,17.80
2018-07-13T23:23:57.098Z,17.70
2018-07-13T23:26:24.928Z,17.70
2018-07-13T23:28:52.791Z,17.80
2018-07-13T23:31:20.567Z,17.70
2018-07-13T23:36:16.315Z,17.50
2018-07-13T23:38:44.142Z,17.40
2018-07-13T23:41:11.855Z,17.30
2018-07-13T23:43:39.552Z,17.20
2018-07-13T23:46:07.269Z,17.00
2018-07-13T23:48:34.955Z,17.00
2018-07-13T23:51:02.682Z,17.00
2018-07-13T23:53:30.343Z,17.00
2018-07-13T23:55:58.064Z,17.00
2018-07-13T23:58:26.325Z,17.00
